TimeEDT,TemperatureF,Dew PointF,Humidity,Sea Level PressureIn,VisibilityMPH,Wind Direction,Wind SpeedMPH,Gust SpeedMPH,PrecipitationIn,Events,Conditions,WindDirDegrees,DateUTC
12:10 AM,78.8,75.2,89,30.10,10.0,East,5.8,-,0.00,Rain,Light Rain,90,2013-06-17 04:10:00
12:53 AM,79.0,75.9,90,30.09,10.0,SE,11.5,-,0.00,,Overcast,130,2013-06-17 04:53:00
1:23 AM,78.8,75.2,89,30.09,10.0,SE,9.2,-,N/A,Thunderstorm,Overcast,140,2013-06-17 05:23:00
1:38 AM,78.8,75.2,89,30.09,10.0,SE,9.2,-,N/A,,Overcast,130,2013-06-17 05:38:00
1:53 AM,79.0,75.9,90,30.08,10.0,SE,8.1,-,N/A,,Overcast,130,2013-06-17 05:53:00
2:15 AM,78.8,75.2,89,30.07,10.0,SE,12.7,18.4,N/A,,Overcast,140,2013-06-17 06:15:00
2:35 AM,78.8,73.4,83,30.06,10.0,South,9.2,-,0.00,,Overcast,170,2013-06-17 06:35:00
2:53 AM,77.0,72.0,84,30.07,10.0,SE,6.9,-,0.00,,Overcast,140,2013-06-17 06:53:00
3:31 AM,77.0,73.4,89,30.05,10.0,SE,3.5,-,N/A,,Overcast,130,2013-06-17 07:31:00
3:53 AM,77.0,73.9,90,30.04,10.0,Calm,Calm,-,N/A,,Overcast,0,2013-06-17 07:53:00
4:05 AM,77.0,73.4,89,30.05,10.0,Calm,Calm,-,N/A,,Overcast,0,2013-06-17 08:05:00
4:53 AM,78.1,75.0,90,30.05,10.0,SE,3.5,-,N/A,,Overcast,140,2013-06-17 08:53:00
5:11 AM,78.8,75.2,89,30.06,10.0,ESE,5.8,-,N/A,,Overcast,120,2013-06-17 09:11:00
5:44 AM,78.8,75.2,89,30.06,10.0,South,3.5,-,N/A,,Overcast,170,2013-06-17 09:44:00
5:53 AM,78.1,75.0,90,30.06,10.0,Calm,Calm,-,N/A,,Overcast,0,2013-06-17 09:53:00
6:09 AM,78.8,75.2,89,30.06,10.0,Calm,Calm,-,N/A,,Overcast,0,2013-06-17 10:09:00
6:53 AM,79.0,75.9,90,30.06,10.0,South,4.6,-,N/A,,Overcast,190,2013-06-17 10:53:00
7:53 AM,79.0,75.9,90,30.06,10.0,SSW,3.5,-,N/A,,Overcast,210,2013-06-17 11:53:00
8:53 AM,80.1,77.0,90,30.08,10.0,West,3.5,-,N/A,,Scattered Clouds,270,2013-06-17 12:53:00
9:53 AM,82.9,75.9,79,30.07,10.0,WSW,3.5,-,N/A,,Clear,250,2013-06-17 13:53:00
10:53 AM,86.0,77.0,74,30.07,10.0,Calm,Calm,-,N/A,,Partly Cloudy,0,2013-06-17 14:53:00
11:53 AM,89.1,75.9,65,30.07,10.0,Variable,3.5,-,N/A,,Clear,0,2013-06-17 15:53:00
12:53 PM,89.1,73.0,59,30.06,10.0,Calm,Calm,-,N/A,,Overcast,0,2013-06-17 16:53:00
1:53 PM,91.0,73.0,55,30.05,10.0,WSW,5.8,-,N/A,,Partly Cloudy,240,2013-06-17 17:53:00
2:53 PM,91.9,72.0,52,30.03,10.0,Calm,Calm,-,N/A,,Scattered Clouds,0,2013-06-17 18:53:00
3:53 PM,93.0,73.0,52,30.02,10.0,West,3.5,-,N/A,,Partly Cloudy,280,2013-06-17 19:53:00
4:53 PM,93.0,71.1,49,30.00,10.0,WNW,4.6,-,N/A,,Partly Cloudy,290,2013-06-17 20:53:00
5:53 PM,84.0,75.0,74,29.99,10.0,South,15.0,20.7,0.06,Rain,Light Rain,170,2013-06-17 21:53:00
6:53 PM,86.0,75.9,72,30.00,10.0,SE,5.8,-,0.00,,Clear,130,2013-06-17 22:53:00
7:03 PM,86.0,75.2,70,30.00,10.0,ESE,4.6,-,N/A,,Clear,110,2013-06-17 23:03:00
7:53 PM,84.0,75.9,76,30.01,10.0,ENE,8.1,-,N/A,Thunderstorm,Mostly Cloudy,60,2013-06-17 23:53:00
8:23 PM,82.4,73.4,74,30.03,10.0,East,4.6,-,N/A,Thunderstorm,Partly Cloudy,80,2013-06-18 00:23:00
8:42 PM,82.4,75.2,79,30.05,10.0,ESE,5.8,-,N/A,Thunderstorm,Mostly Cloudy,120,2013-06-18 00:42:00
8:53 PM,82.0,75.0,79,30.05,10.0,South,9.2,-,N/A,Thunderstorm,Overcast,190,2013-06-18 00:53:00
9:03 PM,82.4,73.4,74,30.05,10.0,SSW,12.7,21.9,N/A,,Mostly Cloudy,210,2013-06-18 01:03:00
9:53 PM,78.1,71.1,79,30.06,10.0,SSW,4.6,-,N/A,,Partly Cloudy,200,2013-06-18 01:53:00
10:53 PM,78.1,72.0,81,30.07,10.0,Calm,Calm,-,N/A,,Partly Cloudy,0,2013-06-18 02:53:00
11:53 PM,77.0,73.0,88,30.07,10.0,Calm,Calm,-,N/A,,Clear,0,2013-06-18 03:53:00